Arklow River — PBFX — position and weather

sailwx.info

Track history (hours):
 
Tides and Currents Weather Stations Pressure Air Temp Water Temp Dewpoint Dewpoint Depression Visibility Wind Speed Wind Dir Waves Ship Positions

Arklow River

Last reported at 2017-Nov-20 00:30 UTC. Time now 2017-Nov-20 23:12 UTC.
Position N 54°59' W 001°31'.

Length 32 m; draft 5.2 m.

Type: Tug. MMSI: 244790899.

Date/timePositionNaut miles runAvg speedWind from/ knotsBaromVisibWave heightAir tempDewpointWater temp
2017-Nov-20 00:30N 54°59' W 001°31'0 0.0
2017-Nov-20 00:00N 54°59' W 001°31'0 0.0
2017-Nov-19 23:30N 54°59' W 001°31'0 0.0
2017-Nov-19 23:00N 54°59' W 001°31'0 0.0
2017-Nov-19 22:30N 54°59' W 001°31'0 0.0
2017-Nov-19 22:00N 54°59' W 001°31'0 0.0
2017-Nov-19 21:30N 54°59' W 001°31'0 0.0
2017-Nov-19 21:00N 54°59' W 001°31'0 0.0
2017-Nov-19 20:30N 54°59' W 001°31'0 0.0
2017-Nov-19 20:00N 54°59' W 001°31'0 0.0
2017-Nov-19 19:30N 54°59' W 001°31'0 0.0
2017-Nov-19 19:00N 54°59' W 001°31'0 0.0
2017-Nov-19 18:30N 54°59' W 001°31'0 0.0
2017-Nov-19 18:00N 54°59' W 001°31'0 0.0
2017-Nov-19 17:30N 54°59' W 001°31'0 0.0
2017-Nov-19 17:00N 54°59' W 001°31'0 0.0
2017-Nov-19 16:30N 54°59' W 001°31'0 0.0
2017-Nov-19 16:00N 54°59' W 001°31'0 0.0
2017-Nov-19 15:30N 54°59' W 001°31'0 0.0
2017-Nov-19 15:00N 54°59' W 001°31'0 0.0
2017-Nov-19 14:30N 54°59' W 001°31'0 0.0
2017-Nov-19 14:00N 54°59' W 001°31'0 0.0
2017-Nov-19 13:30N 54°59' W 001°31'0 0.0
2017-Nov-19 13:00N 54°59' W 001°31'0 0.0
2017-Nov-19 12:30N 54°59' W 001°31'0 0.0
2017-Nov-19 12:00N 54°59' W 001°31'0 0.0
2017-Nov-19 11:30N 54°59' W 001°31'0 0.0
2017-Nov-19 11:00N 54°59' W 001°31'0 0.0
2017-Nov-19 10:30N 54°59' W 001°31'0 0.0
2017-Nov-19 10:00N 54°59' W 001°31'0 0.0
2017-Nov-19 09:30N 54°59' W 001°31'0 0.0
2017-Nov-19 09:00N 54°59' W 001°31'0 0.0
2017-Nov-19 08:30N 54°59' W 001°31'0 0.0
2017-Nov-19 08:00N 54°59' W 001°31'0 0.0
2017-Nov-19 07:30N 54°59' W 001°31'0 0.0
2017-Nov-19 07:00N 54°59' W 001°31'0 0.0
2017-Nov-19 06:30N 54°59' W 001°31'0 0.0
2017-Nov-19 06:00N 54°59' W 001°31'0 0.0
2017-Nov-19 05:30N 54°59' W 001°31'0 0.0
2017-Nov-19 05:00N 54°59' W 001°31'0 0.0
2017-Nov-19 04:30N 54°59' W 001°31'0 0.0
2017-Nov-19 04:00N 54°59' W 001°31'0 0.0
2017-Nov-19 03:31N 54°59' W 001°31'0 0.0
2017-Nov-19 03:01N 54°59' W 001°31'0 0.0
2017-Nov-19 02:30N 54°59' W 001°31'0 0.0
2017-Nov-19 02:00N 54°59' W 001°31'0 0.0
2017-Nov-19 01:31N 54°59' W 001°31'0 0.0
2017-Nov-19 01:01N 54°59' W 001°31'0 0.0
2017-Nov-19 00:30N 54°59' W 001°31'0 0.0
2017-Nov-19 00:00N 54°59' W 001°31'0 0.0
2017-Nov-18 23:31N 54°59' W 001°31'0 0.0
2017-Nov-18 23:01N 54°59' W 001°31'0 0.0
2017-Nov-18 22:30N 54°59' W 001°31'0 0.0
2017-Nov-18 22:00N 54°59' W 001°31'0 0.0
2017-Nov-18 21:30N 54°59' W 001°31'0 0.0
2017-Nov-18 21:00N 54°59' W 001°31'0 0.0
2017-Nov-18 20:30N 54°59' W 001°31'0 0.0
2017-Nov-18 20:00N 54°59' W 001°31'0 0.0
2017-Nov-18 19:30N 54°59' W 001°31'0 0.0
2017-Nov-18 19:00N 54°59' W 001°31'0 0.0
2017-Nov-18 18:30N 54°59' W 001°31'0 0.0
2017-Nov-18 18:00N 54°59' W 001°31'0 0.0
2017-Nov-18 17:30N 54°59' W 001°31'0 0.0
2017-Nov-18 17:00N 54°59' W 001°31'0 0.0
2017-Nov-18 16:30N 54°59' W 001°31'0 0.0
2017-Nov-18 16:00N 54°59' W 001°31'0 0.0
2017-Nov-18 15:30N 54°59' W 001°31'0 0.0
2017-Nov-18 15:00N 54°59' W 001°31'0 0.5
2017-Nov-18 14:30N 54°59' W 001°30'2 4.8
2017-Nov-18 14:01N 55°00' W 001°26'2 4.0
2017-Nov-18 13:30N 55°01' W 001°23'2 3.5
2017-Nov-18 13:00N 55°00' W 001°21'2 4.7
2017-Nov-18 12:30N 54°58' W 001°18'3 5.1
2017-Nov-18 12:01N 54°56' W 001°17'2 3.7
2017-Nov-18 11:31N 54°54' W 001°15'1 2.5
2017-Nov-18 11:00N 54°53' W 001°14'1 2.6
2017-Nov-18 10:30N 54°52' W 001°13'2 3.2
2017-Nov-18 10:01N 54°51' W 001°11'2 3.8
2017-Nov-18 09:30N 54°49' W 001°09'2 4.7
2017-Nov-18 09:01N 54°48' W 001°06'3 6.4
2017-Nov-18 08:30N 54°45' W 001°02'3 6.3
2017-Nov-18 08:01N 54°43' W 000°59'3 6.1
2017-Nov-18 07:29N 54°41' W 000°55'21 5.4
2017-Nov-18 03:33N 54°26' W 000°28'0 4.9
2017-Nov-18 03:30N 54°26' W 000°28'2 4.8
2017-Nov-18 03:00N 54°24' W 000°25'3 5.2
2017-Nov-18 02:30N 54°22' W 000°22'3 5.5
2017-Nov-18 02:01N 54°20' W 000°19'3 5.6
2017-Nov-18 01:31N 54°18' W 000°16'3 5.7
2017-Nov-18 01:01N 54°16' W 000°14'3 6.0
2017-Nov-18 00:30N 54°13' W 000°10'3 6.4
2017-Nov-18 00:00N 54°11' W 000°07'3 6.5
2017-Nov-17 23:31N 54°08' W 000°03'3 6.4
2017-Nov-17 23:00N 54°06' E 000°00'4 7.2
2017-Nov-17 22:30N 54°03' E 000°04'4 7.6
2017-Nov-17 22:00N 53°60' E 000°08'66 5.8
2017-Nov-17 10:36N 53°10' E 001°19'1 7.1
2017-Nov-17 10:30N 53°09' E 001°20'3 6.8
2017-Nov-17 10:00N 53°06' E 001°23'3 6.2
2017-Nov-17 09:30N 53°04' E 001°26'3 5.6
2017-Nov-17 09:00N 53°01' E 001°29'3 5.0
2017-Nov-17 08:30N 52°59' E 001°32'2 4.4
2017-Nov-17 08:00N 52°58' E 001°34'2 3.8
2017-Nov-17 07:31N 52°56' E 001°36'2 3.5
2017-Nov-17 07:00N 52°55' E 001°38'2 3.1
2017-Nov-17 06:30N 52°54' E 001°40'2 3.1
2017-Nov-17 06:01N 52°53' E 001°42'2 3.3
2017-Nov-17 05:30N 52°52' E 001°44'2 4.2
2017-Nov-17 05:00N 52°50' E 001°46'2 4.7
2017-Nov-17 04:30N 52°49' E 001°49'3 5.1
2017-Nov-17 04:00N 52°47' E 001°53'3 5.8
2017-Nov-17 03:30N 52°45' E 001°56'3 6.3
2017-Nov-17 03:00N 52°43' E 002°00'3 7.0
2017-Nov-17 02:30N 52°41' E 002°04'4 7.3
2017-Nov-17 01:58N 52°38' E 002°08'80 5.7
2017-Nov-16 11:48N 51°33' E 003°25'6 6.0
2017-Nov-16 10:51N 51°28' E 003°30'2 4.2
2017-Nov-16 10:24N 51°27' E 003°32'2 4.2
2017-Nov-16 10:00N 51°26' E 003°35'2 4.5
2017-Nov-16 09:30N 51°25' E 003°38'2 4.6
2017-Nov-16 09:00N 51°24' E 003°41'3 5.5
2017-Nov-16 08:30N 51°22' E 003°45'3 6.2
2017-Nov-16 08:00N 51°21' E 003°49'2 3.7
2017-Nov-16 07:30N 51°21' E 003°52'1 1.7
2017-Nov-16 07:00N 51°21' E 003°51'1 1.9
2017-Nov-16 06:25N 51°20' E 003°49'0 0.0
2017-Nov-16 05:58N 51°20' E 003°49'0 0.0
2017-Nov-16 05:28N 51°20' E 003°49'0 0.0
2017-Nov-16 04:55N 51°20' E 003°49'0 0.0
2017-Nov-16 04:25N 51°20' E 003°49'0 0.0
2017-Nov-16 03:58N 51°20' E 003°49'0 0.0
2017-Nov-16 03:28N 51°20' E 003°49'0 0.0
2017-Nov-16 02:58N 51°20' E 003°49'0 0.0
2017-Nov-16 02:28N 51°20' E 003°49'0 0.0
2017-Nov-16 01:58N 51°20' E 003°49'0 0.0
2017-Nov-16 01:28N 51°20' E 003°49'0 0.0
2017-Nov-16 00:55N 51°20' E 003°49'0 0.0
2017-Nov-16 00:25N 51°20' E 003°49'0 0.0
2017-Nov-15 23:55N 51°20' E 003°49'0 0.0
2017-Nov-15 23:28N 51°20' E 003°49'0 0.0
2017-Nov-15 22:55N 51°20' E 003°49'0 0.0
2017-Nov-15 22:25N 51°20' E 003°49'0 0.0
2017-Nov-15 21:58N 51°20' E 003°49'0 0.0
2017-Nov-15 21:28N 51°20' E 003°49'0 0.0
2017-Nov-15 20:58N 51°20' E 003°49'0 0.0
2017-Nov-15 20:25N 51°20' E 003°49'2 5.8
2017-Nov-15 20:00N 51°22' E 003°46'5 9.9
2017-Nov-15 19:30N 51°26' E 003°41'2 3.9
2017-Nov-15 19:00N 51°27' E 003°43'1 2.2
2017-Nov-15 18:30N 51°27' E 003°41'2 4.6
2017-Nov-15 18:00N 51°26' E 003°38'1 1.5
2017-Nov-15 17:30N 51°26' E 003°37'4 7.2
2017-Nov-15 17:01N 51°24' E 003°43'611.0
2017-Nov-15 16:31N 51°21' E 003°49'0 0.5
2017-Nov-15 15:58N 51°20' E 003°49'0 0.0
2017-Nov-15 15:28N 51°20' E 003°49'0 0.0
2017-Nov-15 14:58N 51°20' E 003°49'0 0.4
2017-Nov-15 14:30N 51°20' E 003°49'0 0.9
2017-Nov-15 14:00N 51°20' E 003°49'0 0.0
2017-Nov-15 13:30N 51°20' E 003°49'0 0.0
2017-Nov-15 13:00N 51°20' E 003°49'0 0.0
2017-Nov-15 12:30N 51°20' E 003°49'0 0.4
2017-Nov-15 12:00N 51°20' E 003°49'0 0.4
2017-Nov-15 11:31N 51°20' E 003°49'0 0.7
2017-Nov-15 11:00N 51°20' E 003°49'0 0.0
2017-Nov-15 10:30N 51°20' E 003°49'0 0.0
2017-Nov-15 09:57N 51°20' E 003°49'0 0.0
2017-Nov-15 09:30N 51°20' E 003°49'0 0.0
2017-Nov-15 09:00N 51°20' E 003°49'0 0.0
2017-Nov-15 08:30N 51°20' E 003°49'0 0.0
2017-Nov-15 08:00N 51°20' E 003°49'0 0.0
2017-Nov-15 07:30N 51°20' E 003°49'0 0.0
2017-Nov-15 07:00N 51°20' E 003°49'0 0.0
2017-Nov-15 06:30N 51°20' E 003°49'0 0.0
2017-Nov-15 06:00N 51°20' E 003°49'0 0.0
2017-Nov-15 05:30N 51°20' E 003°49'0 0.0
2017-Nov-15 05:00N 51°20' E 003°49'0 0.0
2017-Nov-15 04:30N 51°20' E 003°49'0 0.0
2017-Nov-15 04:00N 51°20' E 003°49'0 0.0
2017-Nov-15 03:30N 51°20' E 003°49'0 0.0
2017-Nov-15 03:00N 51°20' E 003°49'0 0.0
2017-Nov-15 02:30N 51°20' E 003°49'0 0.0
2017-Nov-15 02:00N 51°20' E 003°49'0 0.0
2017-Nov-15 01:30N 51°20' E 003°49'0 0.0
2017-Nov-15 01:00N 51°20' E 003°49'0 0.0
2017-Nov-15 00:30N 51°20' E 003°49'0 0.0
2017-Nov-15 00:00N 51°20' E 003°49'2 3.9
2017-Nov-14 23:31N 51°21' E 003°46'0 0.8
2017-Nov-14 23:00N 51°21' E 003°46'1 2.2
2017-Nov-14 22:31N 51°22' E 003°45'2 3.2
2017-Nov-14 22:01N 51°23' E 003°43'5 9.8
2017-Nov-14 21:30N 51°27' E 003°40'0 0.1
2017-Nov-14 21:00N 51°27' E 003°40'0 0.1
2017-Nov-14 20:31N 51°27' E 003°40'0 0.5
2017-Nov-14 20:00N 51°27' E 003°41'1 1.3
2017-Nov-14 19:30N 51°27' E 003°40'0 0.4
2017-Nov-14 18:59N 51°27' E 003°40'4 9.0
2017-Nov-14 18:30N 51°23' E 003°44'3 5.2
2017-Nov-14 18:00N 51°21' E 003°46'0 0.0
2017-Nov-14 17:31N 51°21' E 003°46'2 3.4
2017-Nov-14 16:58N 51°20' E 003°49'0 0.0
2017-Nov-14 16:28N 51°20' E 003°49'0 0.0
2017-Nov-14 15:58N 51°20' E 003°49'1 1.3
2017-Nov-14 15:30N 51°21' E 003°50'611.6
2017-Nov-14 15:00N 51°24' E 003°57'3 6.3
2017-Nov-14 14:31N 51°24' E 004°02'5 9.7
2017-Nov-14 14:01N 51°23' E 004°10'4 8.9
2017-Nov-14 13:31N 51°21' E 004°16'1 1.4
2017-Nov-14 13:00N 51°21' E 004°17'2 3.5
2017-Nov-14 12:30N 51°21' E 004°14'0 0.2
2017-Nov-14 12:00N 51°21' E 004°14'1 2.2
2017-Nov-14 11:25N 51°21' E 004°16'0 0.0
2017-Nov-14 11:00N 51°21' E 004°16'0 0.0
2017-Nov-14 10:30N 51°21' E 004°16'0 0.0
2017-Nov-14 09:52N 51°21' E 004°16'0 0.0
2017-Nov-14 09:31N 51°21' E 004°16'0 0.0
2017-Nov-14 08:58N 51°21' E 004°16'0 0.0
2017-Nov-14 08:29N 51°21' E 004°16'0 0.0
2017-Nov-14 08:00N 51°21' E 004°16'0 0.0
2017-Nov-14 07:29N 51°21' E 004°16'0 0.0
2017-Nov-14 06:59N 51°21' E 004°16'0 0.0
2017-Nov-14 06:31N 51°21' E 004°16'0 0.0
2017-Nov-14 06:01N 51°21' E 004°16'0 0.3
2017-Nov-14 05:30N 51°21' E 004°16'0 0.3
2017-Nov-14 05:00N 51°21' E 004°16'0 0.0
2017-Nov-14 04:31N 51°21' E 004°16'0 0.0
2017-Nov-14 04:00N 51°21' E 004°16'0 0.0
2017-Nov-14 03:30N 51°21' E 004°16'0 0.0
2017-Nov-14 03:00N 51°21' E 004°16'0 0.0
2017-Nov-14 02:30N 51°21' E 004°16'0 0.0
2017-Nov-14 02:00N 51°21' E 004°16'0 0.0
2017-Nov-14 01:30N 51°21' E 004°16'0 0.0
2017-Nov-14 01:00N 51°21' E 004°16'0 0.0
2017-Nov-14 00:30N 51°21' E 004°16'0 0.0
2017-Nov-14 00:00N 51°21' E 004°16'0 0.0
2017-Nov-13 23:31N 51°21' E 004°16'4 7.4
2017-Nov-13 23:00N 51°24' E 004°12'611.4
2017-Nov-13 22:30N 51°22' E 004°03'4 8.6
2017-Nov-13 22:00N 51°25' E 003°58'11 0.6
2017-Nov-13 02:00N 51°28' E 003°40'0 0.0
2017-Nov-13 01:30N 51°28' E 003°40'0 0.0
2017-Nov-13 00:57N 51°28' E 003°40'0 0.0
2017-Nov-13 00:30N 51°28' E 003°40'0 0.0
2017-Nov-12 23:57N 51°28' E 003°40'0 0.0
2017-Nov-12 23:30N 51°28' E 003°40'0 0.0
2017-Nov-12 22:57N 51°28' E 003°40'0 0.0
2017-Nov-12 22:30N 51°28' E 003°40'0 0.0
2017-Nov-12 21:57N 51°28' E 003°40'0 0.0
2017-Nov-12 21:27N 51°28' E 003°40'0 0.0
2017-Nov-12 20:57N 51°28' E 003°40'0 0.4
2017-Nov-12 20:30N 51°27' E 003°41'510.3
2017-Nov-12 20:00N 51°25' E 003°33'4 8.2
2017-Nov-12 19:30N 51°25' E 003°27'4 8.6
2017-Nov-12 19:00N 51°24' E 003°20'2 4.2
2017-Nov-12 18:30N 51°25' E 003°23'5 9.3
2017-Nov-12 18:00N 51°25' E 003°31'5 9.9
2017-Nov-12 17:30N 51°26' E 003°38'2 3.1
2017-Nov-12 16:55N 51°28' E 003°40'0 0.0
2017-Nov-12 16:28N 51°28' E 003°40'0 0.0
2017-Nov-12 15:55N 51°28' E 003°40'0 0.0
2017-Nov-12 15:28N 51°28' E 003°40'0 0.0
2017-Nov-12 14:49N 51°28' E 003°40'0 0.0
2017-Nov-12 14:25N 51°28' E 003°40'0 0.0
2017-Nov-12 13:58N 51°28' E 003°40'0 0.0
2017-Nov-12 13:13N 51°28' E 003°40'0 0.0
2017-Nov-12 12:55N 51°28' E 003°40'0 0.0
2017-Nov-12 12:25N 51°28' E 003°40'0 0.0
2017-Nov-12 11:58N 51°28' E 003°40'0 0.0
2017-Nov-12 11:25N 51°28' E 003°40'0 0.0
2017-Nov-12 10:55N 51°28' E 003°40'0 0.0
2017-Nov-12 10:30N 51°28' E 003°40'1 1.0
2017-Nov-12 10:00N 51°28' E 003°41'1 2.5
2017-Nov-12 09:30N 51°27' E 003°43'1 2.3
2017-Nov-12 09:00N 51°27' E 003°42'2 4.1
2017-Nov-12 08:30N 51°26' E 003°39'0 0.6
2017-Nov-12 08:00N 51°26' E 003°38'2 3.9
2017-Nov-12 07:30N 51°28' E 003°40'0 0.0
2017-Nov-12 07:00N 51°28' E 003°40'0 0.0
2017-Nov-12 06:24N 51°28' E 003°40'0 0.0
2017-Nov-12 05:57N 51°28' E 003°40'0 0.0
2017-Nov-12 05:27N 51°28' E 003°40'0 0.0
2017-Nov-12 05:00N 51°28' E 003°40'0 0.0
2017-Nov-12 04:30N 51°28' E 003°40'0 0.0
2017-Nov-12 03:57N 51°28' E 003°40'0 0.0
2017-Nov-12 03:27N 51°28' E 003°40'0 0.0
2017-Nov-12 03:00N 51°28' E 003°40'0 0.0
2017-Nov-12 02:27N 51°28' E 003°40'0 0.0
2017-Nov-12 02:00N 51°28' E 003°40'0 0.0
2017-Nov-12 01:21N 51°28' E 003°40'0 0.0
2017-Nov-12 00:51N 51°28' E 003°40'0 0.0
2017-Nov-12 00:30N 51°28' E 003°40'0 0.0
2017-Nov-12 00:00N 51°28' E 003°40'0 0.0
2017-Nov-11 23:30N 51°28' E 003°40'0 0.0
2017-Nov-11 22:57N 51°28' E 003°40'0 0.0
2017-Nov-11 22:27N 51°28' E 003°40'0 0.0
2017-Nov-11 22:00N 51°28' E 003°40'0 0.0
2017-Nov-11 21:27N 51°28' E 003°40'0 0.0
2017-Nov-11 21:00N 51°28' E 003°40'0 0.0
2017-Nov-11 20:30N 51°28' E 003°40'1 2.8
2017-Nov-11 20:00N 51°29' E 003°42'0 0.0
2017-Nov-11 19:30N 51°29' E 003°42'0 0.4
2017-Nov-11 19:00N 51°28' E 003°42'0 0.5
2017-Nov-11 18:30N 51°28' E 003°43'1 2.0
2017-Nov-11 18:00N 51°27' E 003°42'1 1.7
2017-Nov-11 17:30N 51°27' E 003°43'0 0.3
2017-Nov-11 17:01N 51°27' E 003°42'0 0.1
2017-Nov-11 16:30N 51°27' E 003°42'0 0.0
2017-Nov-11 16:00N 51°27' E 003°42'1 2.6
2017-Nov-11 15:30N 51°26' E 003°42'4 8.2
2017-Nov-11 15:00N 51°22' E 003°45'3 4.2
2017-Nov-11 14:21N 51°20' E 003°49'0 0.0
2017-Nov-11 13:57N 51°20' E 003°49'0 0.0
2017-Nov-11 13:27N 51°20' E 003°49'0 0.0
2017-Nov-11 12:57N 51°20' E 003°49'0 0.0
2017-Nov-11 12:27N 51°20' E 003°49'0 0.0
2017-Nov-11 11:57N 51°20' E 003°49'0 0.0
2017-Nov-11 11:27N 51°20' E 003°49'0 0.0
2017-Nov-11 10:57N 51°20' E 003°49'0 0.0
2017-Nov-11 10:27N 51°20' E 003°49'0 0.0
2017-Nov-11 09:51N 51°20' E 003°49'0 0.0
2017-Nov-11 09:27N 51°20' E 003°49'0 0.0
2017-Nov-11 08:57N 51°20' E 003°49'0 0.0
2017-Nov-11 08:30N 51°20' E 003°49'0 0.0
2017-Nov-11 08:00N 51°20' E 003°49'0 0.0
2017-Nov-11 07:27N 51°20' E 003°49'0 0.0
2017-Nov-11 07:00N 51°20' E 003°49'0 0.0
2017-Nov-11 06:24N 51°20' E 003°49'0 0.0
2017-Nov-11 05:45N 51°20' E 003°49'0 0.0
2017-Nov-11 05:27N 51°20' E 003°49'0 0.0
2017-Nov-11 04:57N 51°20' E 003°49'0 0.0
2017-Nov-11 04:27N 51°20' E 003°49'0 0.0
2017-Nov-11 03:57N 51°20' E 003°49'0 0.0
2017-Nov-11 03:27N 51°20' E 003°49'0 0.0
2017-Nov-11 02:57N 51°20' E 003°49'0 0.0
2017-Nov-11 02:27N 51°20' E 003°49'0 0.0
2017-Nov-11 01:57N 51°20' E 003°49'0 0.0
2017-Nov-11 01:21N 51°20' E 003°49'1 1.4
2017-Nov-11 01:00N 51°20' E 003°49'0 0.2
2017-Nov-11 00:30N 51°20' E 003°49'1 2.6
2017-Nov-11 00:00N 51°18' E 003°50'3 6.1
2017-Nov-10 23:31N 51°15' E 003°50'3 6.4
2017-Nov-10 23:00N 51°12' E 003°48'3 5.5
2017-Nov-10 22:30N 51°10' E 003°47'1 1.7
2017-Nov-10 22:01N 51°10' E 003°48'2 3.4
2017-Nov-10 21:30N 51°09' E 003°47'1 1.3
2017-Nov-10 21:01N 51°09' E 003°47'1 2.8
2017-Nov-10 20:31N 51°11' E 003°48'4 8.5
2017-Nov-10 20:00N 51°15' E 003°49'4 7.6
2017-Nov-10 19:30N 51°19' E 003°50'0 0.0
2017-Nov-10 19:00N 51°19' E 003°50'0 0.0
2017-Nov-10 18:30N 51°19' E 003°50'1 2.3
2017-Nov-10 18:00N 51°20' E 003°49'0 0.7
2017-Nov-10 17:30N 51°20' E 003°49'0 0.6
2017-Nov-10 16:59N 51°20' E 003°49'0 0.0
2017-Nov-10 16:23N 51°20' E 003°49'0 0.0
2017-Nov-10 15:56N 51°20' E 003°49'0 0.0
2017-Nov-10 15:29N 51°20' E 003°49'0 0.0
2017-Nov-10 14:59N 51°20' E 003°49'0 0.0
2017-Nov-10 14:29N 51°20' E 003°49'0 0.0
2017-Nov-10 13:59N 51°20' E 003°49'0 0.0
2017-Nov-10 13:29N 51°20' E 003°49'0 0.0
2017-Nov-10 12:53N 51°20' E 003°49'0 0.0
2017-Nov-10 12:29N 51°20' E 003°49'0 0.0
2017-Nov-10 11:59N 51°20' E 003°49'0 0.0
2017-Nov-10 11:29N 51°20' E 003°49'0 0.0
2017-Nov-10 10:59N 51°20' E 003°49'0 0.0
2017-Nov-10 10:11N 51°20' E 003°49'0 0.0
2017-Nov-10 09:59N 51°20' E 003°49'0 0.0
2017-Nov-10 09:29N 51°20' E 003°49'0 0.0
2017-Nov-10 08:59N 51°20' E 003°49'0 0.0
2017-Nov-10 08:29N 51°20' E 003°49'0 0.0
2017-Nov-10 07:53N 51°20' E 003°49'0 0.0
2017-Nov-10 07:29N 51°20' E 003°49'0 0.0
2017-Nov-10 06:59N 51°20' E 003°49'0 0.0
2017-Nov-10 06:23N 51°20' E 003°49'0 0.0
2017-Nov-10 05:59N 51°20' E 003°49'0 0.0
2017-Nov-10 05:29N 51°20' E 003°49'0 0.0
2017-Nov-10 04:59N 51°20' E 003°49'0 0.0
2017-Nov-10 04:23N 51°20' E 003°49'0 0.0
2017-Nov-10 03:59N 51°20' E 003°49'0 0.0
2017-Nov-10 03:29N 51°20' E 003°49'0 0.0
2017-Nov-10 02:59N 51°20' E 003°49'0 0.0
2017-Nov-10 02:29N 51°20' E 003°49'0 0.0
2017-Nov-10 01:59N 51°20' E 003°49'0 0.0
2017-Nov-10 01:29N 51°20' E 003°49'0 0.0
2017-Nov-10 00:59N 51°20' E 003°49'  
Track history (hours):
 
Tides and Currents Weather Stations Pressure Air Temp Water Temp Dewpoint Dewpoint Depression Visibility Wind Speed Wind Dir Waves Ship Positions

Arklow River

Last reported at 2017-Nov-20 00:30 UTC. Time now 2017-Nov-20 23:12 UTC.
Position N 54°59' W 001°31'.

Length 32 m; draft 5.2 m.

Type: Tug. MMSI: 244790899.

Date/timePositionNaut miles runAvg speedWind from/ knotsBaromVisibWave heightAir tempDewpointWater temp
2017-Nov-20 00:30N 54°59' W 001°31'0 0.0
2017-Nov-20 00:00N 54°59' W 001°31'0 0.0
2017-Nov-19 23:30N 54°59' W 001°31'0 0.0
2017-Nov-19 23:00N 54°59' W 001°31'0 0.0
2017-Nov-19 22:30N 54°59' W 001°31'0 0.0
2017-Nov-19 22:00N 54°59' W 001°31'0 0.0
2017-Nov-19 21:30N 54°59' W 001°31'0 0.0
2017-Nov-19 21:00N 54°59' W 001°31'0 0.0
2017-Nov-19 20:30N 54°59' W 001°31'0 0.0
2017-Nov-19 20:00N 54°59' W 001°31'0 0.0
2017-Nov-19 19:30N 54°59' W 001°31'0 0.0
2017-Nov-19 19:00N 54°59' W 001°31'0 0.0
2017-Nov-19 18:30N 54°59' W 001°31'0 0.0
2017-Nov-19 18:00N 54°59' W 001°31'0 0.0
2017-Nov-19 17:30N 54°59' W 001°31'0 0.0
2017-Nov-19 17:00N 54°59' W 001°31'0 0.0
2017-Nov-19 16:30N 54°59' W 001°31'0 0.0
2017-Nov-19 16:00N 54°59' W 001°31'0 0.0
2017-Nov-19 15:30N 54°59' W 001°31'0 0.0
2017-Nov-19 15:00N 54°59' W 001°31'0 0.0
2017-Nov-19 14:30N 54°59' W 001°31'0 0.0
2017-Nov-19 14:00N 54°59' W 001°31'0 0.0
2017-Nov-19 13:30N 54°59' W 001°31'0 0.0
2017-Nov-19 13:00N 54°59' W 001°31'0 0.0
2017-Nov-19 12:30N 54°59' W 001°31'0 0.0
2017-Nov-19 12:00N 54°59' W 001°31'0 0.0
2017-Nov-19 11:30N 54°59' W 001°31'0 0.0
2017-Nov-19 11:00N 54°59' W 001°31'0 0.0
2017-Nov-19 10:30N 54°59' W 001°31'0 0.0
2017-Nov-19 10:00N 54°59' W 001°31'0 0.0
2017-Nov-19 09:30N 54°59' W 001°31'0 0.0
2017-Nov-19 09:00N 54°59' W 001°31'0 0.0
2017-Nov-19 08:30N 54°59' W 001°31'0 0.0
2017-Nov-19 08:00N 54°59' W 001°31'0 0.0
2017-Nov-19 07:30N 54°59' W 001°31'0 0.0
2017-Nov-19 07:00N 54°59' W 001°31'0 0.0
2017-Nov-19 06:30N 54°59' W 001°31'0 0.0
2017-Nov-19 06:00N 54°59' W 001°31'0 0.0
2017-Nov-19 05:30N 54°59' W 001°31'0 0.0
2017-Nov-19 05:00N 54°59' W 001°31'0 0.0
2017-Nov-19 04:30N 54°59' W 001°31'0 0.0
2017-Nov-19 04:00N 54°59' W 001°31'0 0.0
2017-Nov-19 03:31N 54°59' W 001°31'0 0.0
2017-Nov-19 03:01N 54°59' W 001°31'0 0.0
2017-Nov-19 02:30N 54°59' W 001°31'0 0.0
2017-Nov-19 02:00N 54°59' W 001°31'0 0.0
2017-Nov-19 01:31N 54°59' W 001°31'0 0.0
2017-Nov-19 01:01N 54°59' W 001°31'0 0.0
2017-Nov-19 00:30N 54°59' W 001°31'0 0.0
2017-Nov-19 00:00N 54°59' W 001°31'0 0.0
2017-Nov-18 23:31N 54°59' W 001°31'0 0.0
2017-Nov-18 23:01N 54°59' W 001°31'0 0.0
2017-Nov-18 22:30N 54°59' W 001°31'0 0.0
2017-Nov-18 22:00N 54°59' W 001°31'0 0.0
2017-Nov-18 21:30N 54°59' W 001°31'0 0.0
2017-Nov-18 21:00N 54°59' W 001°31'0 0.0
2017-Nov-18 20:30N 54°59' W 001°31'0 0.0
2017-Nov-18 20:00N 54°59' W 001°31'0 0.0
2017-Nov-18 19:30N 54°59' W 001°31'0 0.0
2017-Nov-18 19:00N 54°59' W 001°31'0 0.0
2017-Nov-18 18:30N 54°59' W 001°31'0 0.0
2017-Nov-18 18:00N 54°59' W 001°31'0 0.0
2017-Nov-18 17:30N 54°59' W 001°31'0 0.0
2017-Nov-18 17:00N 54°59' W 001°31'0 0.0
2017-Nov-18 16:30N 54°59' W 001°31'0 0.0
2017-Nov-18 16:00N 54°59' W 001°31'0 0.0
2017-Nov-18 15:30N 54°59' W 001°31'0 0.0
2017-Nov-18 15:00N 54°59' W 001°31'0 0.5
2017-Nov-18 14:30N 54°59' W 001°30'2 4.8
2017-Nov-18 14:01N 55°00' W 001°26'2 4.0
2017-Nov-18 13:30N 55°01' W 001°23'2 3.5
2017-Nov-18 13:00N 55°00' W 001°21'2 4.7
2017-Nov-18 12:30N 54°58' W 001°18'3 5.1
2017-Nov-18 12:01N 54°56' W 001°17'2 3.7
2017-Nov-18 11:31N 54°54' W 001°15'1 2.5
2017-Nov-18 11:00N 54°53' W 001°14'1 2.6
2017-Nov-18 10:30N 54°52' W 001°13'2 3.2
2017-Nov-18 10:01N 54°51' W 001°11'2 3.8
2017-Nov-18 09:30N 54°49' W 001°09'2 4.7
2017-Nov-18 09:01N 54°48' W 001°06'3 6.4
2017-Nov-18 08:30N 54°45' W 001°02'3 6.3
2017-Nov-18 08:01N 54°43' W 000°59'3 6.1
2017-Nov-18 07:29N 54°41' W 000°55'21 5.4
2017-Nov-18 03:33N 54°26' W 000°28'0 4.9
2017-Nov-18 03:30N 54°26' W 000°28'2 4.8
2017-Nov-18 03:00N 54°24' W 000°25'3 5.2
2017-Nov-18 02:30N 54°22' W 000°22'3 5.5
2017-Nov-18 02:01N 54°20' W 000°19'3 5.6
2017-Nov-18 01:31N 54°18' W 000°16'3 5.7
2017-Nov-18 01:01N 54°16' W 000°14'3 6.0
2017-Nov-18 00:30N 54°13' W 000°10'3 6.4
2017-Nov-18 00:00N 54°11' W 000°07'3 6.5
2017-Nov-17 23:31N 54°08' W 000°03'3 6.4
2017-Nov-17 23:00N 54°06' E 000°00'4 7.2
2017-Nov-17 22:30N 54°03' E 000°04'4 7.6
2017-Nov-17 22:00N 53°60' E 000°08'66 5.8
2017-Nov-17 10:36N 53°10' E 001°19'1 7.1
2017-Nov-17 10:30N 53°09' E 001°20'3 6.8
2017-Nov-17 10:00N 53°06' E 001°23'3 6.2
2017-Nov-17 09:30N 53°04' E 001°26'3 5.6
2017-Nov-17 09:00N 53°01' E 001°29'3 5.0
2017-Nov-17 08:30N 52°59' E 001°32'2 4.4
2017-Nov-17 08:00N 52°58' E 001°34'2 3.8
2017-Nov-17 07:31N 52°56' E 001°36'2 3.5
2017-Nov-17 07:00N 52°55' E 001°38'2 3.1
2017-Nov-17 06:30N 52°54' E 001°40'2 3.1
2017-Nov-17 06:01N 52°53' E 001°42'2 3.3
2017-Nov-17 05:30N 52°52' E 001°44'2 4.2
2017-Nov-17 05:00N 52°50' E 001°46'2 4.7
2017-Nov-17 04:30N 52°49' E 001°49'3 5.1
2017-Nov-17 04:00N 52°47' E 001°53'3 5.8
2017-Nov-17 03:30N 52°45' E 001°56'3 6.3
2017-Nov-17 03:00N 52°43' E 002°00'3 7.0
2017-Nov-17 02:30N 52°41' E 002°04'4 7.3
2017-Nov-17 01:58N 52°38' E 002°08'80 5.7
2017-Nov-16 11:48N 51°33' E 003°25'6 6.0
2017-Nov-16 10:51N 51°28' E 003°30'2 4.2
2017-Nov-16 10:24N 51°27' E 003°32'2 4.2
2017-Nov-16 10:00N 51°26' E 003°35'2 4.5
2017-Nov-16 09:30N 51°25' E 003°38'2 4.6
2017-Nov-16 09:00N 51°24' E 003°41'3 5.5
2017-Nov-16 08:30N 51°22' E 003°45'3 6.2
2017-Nov-16 08:00N 51°21' E 003°49'2 3.7
2017-Nov-16 07:30N 51°21' E 003°52'1 1.7
2017-Nov-16 07:00N 51°21' E 003°51'1 1.9
2017-Nov-16 06:25N 51°20' E 003°49'0 0.0
2017-Nov-16 05:58N 51°20' E 003°49'0 0.0
2017-Nov-16 05:28N 51°20' E 003°49'0 0.0
2017-Nov-16 04:55N 51°20' E 003°49'0 0.0
2017-Nov-16 04:25N 51°20' E 003°49'0 0.0
2017-Nov-16 03:58N 51°20' E 003°49'0 0.0
2017-Nov-16 03:28N 51°20' E 003°49'0 0.0
2017-Nov-16 02:58N 51°20' E 003°49'0 0.0
2017-Nov-16 02:28N 51°20' E 003°49'0 0.0
2017-Nov-16 01:58N 51°20' E 003°49'0 0.0
2017-Nov-16 01:28N 51°20' E 003°49'0 0.0
2017-Nov-16 00:55N 51°20' E 003°49'0 0.0
2017-Nov-16 00:25N 51°20' E 003°49'0 0.0
2017-Nov-15 23:55N 51°20' E 003°49'0 0.0
2017-Nov-15 23:28N 51°20' E 003°49'0 0.0
2017-Nov-15 22:55N 51°20' E 003°49'0 0.0
2017-Nov-15 22:25N 51°20' E 003°49'0 0.0
2017-Nov-15 21:58N 51°20' E 003°49'0 0.0
2017-Nov-15 21:28N 51°20' E 003°49'0 0.0
2017-Nov-15 20:58N 51°20' E 003°49'0 0.0
2017-Nov-15 20:25N 51°20' E 003°49'2 5.8
2017-Nov-15 20:00N 51°22' E 003°46'5 9.9
2017-Nov-15 19:30N 51°26' E 003°41'2 3.9
2017-Nov-15 19:00N 51°27' E 003°43'1 2.2
2017-Nov-15 18:30N 51°27' E 003°41'2 4.6
2017-Nov-15 18:00N 51°26' E 003°38'1 1.5
2017-Nov-15 17:30N 51°26' E 003°37'4 7.2
2017-Nov-15 17:01N 51°24' E 003°43'611.0
2017-Nov-15 16:31N 51°21' E 003°49'0 0.5
2017-Nov-15 15:58N 51°20' E 003°49'0 0.0
2017-Nov-15 15:28N 51°20' E 003°49'0 0.0
2017-Nov-15 14:58N 51°20' E 003°49'0 0.4
2017-Nov-15 14:30N 51°20' E 003°49'0 0.9
2017-Nov-15 14:00N 51°20' E 003°49'0 0.0
2017-Nov-15 13:30N 51°20' E 003°49'0 0.0
2017-Nov-15 13:00N 51°20' E 003°49'0 0.0
2017-Nov-15 12:30N 51°20' E 003°49'0 0.4
2017-Nov-15 12:00N 51°20' E 003°49'0 0.4
2017-Nov-15 11:31N 51°20' E 003°49'0 0.7
2017-Nov-15 11:00N 51°20' E 003°49'0 0.0
2017-Nov-15 10:30N 51°20' E 003°49'0 0.0
2017-Nov-15 09:57N 51°20' E 003°49'0 0.0
2017-Nov-15 09:30N 51°20' E 003°49'0 0.0
2017-Nov-15 09:00N 51°20' E 003°49'0 0.0
2017-Nov-15 08:30N 51°20' E 003°49'0 0.0
2017-Nov-15 08:00N 51°20' E 003°49'0 0.0
2017-Nov-15 07:30N 51°20' E 003°49'0 0.0
2017-Nov-15 07:00N 51°20' E 003°49'0 0.0
2017-Nov-15 06:30N 51°20' E 003°49'0 0.0
2017-Nov-15 06:00N 51°20' E 003°49'0 0.0
2017-Nov-15 05:30N 51°20' E 003°49'0 0.0
2017-Nov-15 05:00N 51°20' E 003°49'0 0.0
2017-Nov-15 04:30N 51°20' E 003°49'0 0.0
2017-Nov-15 04:00N 51°20' E 003°49'0 0.0
2017-Nov-15 03:30N 51°20' E 003°49'0 0.0
2017-Nov-15 03:00N 51°20' E 003°49'0 0.0
2017-Nov-15 02:30N 51°20' E 003°49'0 0.0
2017-Nov-15 02:00N 51°20' E 003°49'0 0.0
2017-Nov-15 01:30N 51°20' E 003°49'0 0.0
2017-Nov-15 01:00N 51°20' E 003°49'0 0.0
2017-Nov-15 00:30N 51°20' E 003°49'0 0.0
2017-Nov-15 00:00N 51°20' E 003°49'2 3.9
2017-Nov-14 23:31N 51°21' E 003°46'0 0.8
2017-Nov-14 23:00N 51°21' E 003°46'1 2.2
2017-Nov-14 22:31N 51°22' E 003°45'2 3.2
2017-Nov-14 22:01N 51°23' E 003°43'5 9.8
2017-Nov-14 21:30N 51°27' E 003°40'0 0.1
2017-Nov-14 21:00N 51°27' E 003°40'0 0.1
2017-Nov-14 20:31N 51°27' E 003°40'0 0.5
2017-Nov-14 20:00N 51°27' E 003°41'1 1.3
2017-Nov-14 19:30N 51°27' E 003°40'0 0.4
2017-Nov-14 18:59N 51°27' E 003°40'4 9.0
2017-Nov-14 18:30N 51°23' E 003°44'3 5.2
2017-Nov-14 18:00N 51°21' E 003°46'0 0.0
2017-Nov-14 17:31N 51°21' E 003°46'2 3.4
2017-Nov-14 16:58N 51°20' E 003°49'0 0.0
2017-Nov-14 16:28N 51°20' E 003°49'0 0.0
2017-Nov-14 15:58N 51°20' E 003°49'1 1.3
2017-Nov-14 15:30N 51°21' E 003°50'611.6
2017-Nov-14 15:00N 51°24' E 003°57'3 6.3
2017-Nov-14 14:31N 51°24' E 004°02'5 9.7
2017-Nov-14 14:01N 51°23' E 004°10'4 8.9
2017-Nov-14 13:31N 51°21' E 004°16'1 1.4
2017-Nov-14 13:00N 51°21' E 004°17'2 3.5
2017-Nov-14 12:30N 51°21' E 004°14'0 0.2
2017-Nov-14 12:00N 51°21' E 004°14'1 2.2
2017-Nov-14 11:25N 51°21' E 004°16'0 0.0
2017-Nov-14 11:00N 51°21' E 004°16'0 0.0
2017-Nov-14 10:30N 51°21' E 004°16'0 0.0
2017-Nov-14 09:52N 51°21' E 004°16'0 0.0
2017-Nov-14 09:31N 51°21' E 004°16'0 0.0
2017-Nov-14 08:58N 51°21' E 004°16'0 0.0
2017-Nov-14 08:29N 51°21' E 004°16'0 0.0
2017-Nov-14 08:00N 51°21' E 004°16'0 0.0
2017-Nov-14 07:29N 51°21' E 004°16'0 0.0
2017-Nov-14 06:59N 51°21' E 004°16'0 0.0
2017-Nov-14 06:31N 51°21' E 004°16'0 0.0
2017-Nov-14 06:01N 51°21' E 004°16'0 0.3
2017-Nov-14 05:30N 51°21' E 004°16'0 0.3
2017-Nov-14 05:00N 51°21' E 004°16'0 0.0
2017-Nov-14 04:31N 51°21' E 004°16'0 0.0
2017-Nov-14 04:00N 51°21' E 004°16'0 0.0
2017-Nov-14 03:30N 51°21' E 004°16'0 0.0
2017-Nov-14 03:00N 51°21' E 004°16'0 0.0
2017-Nov-14 02:30N 51°21' E 004°16'0 0.0
2017-Nov-14 02:00N 51°21' E 004°16'0 0.0
2017-Nov-14 01:30N 51°21' E 004°16'0 0.0
2017-Nov-14 01:00N 51°21' E 004°16'0 0.0
2017-Nov-14 00:30N 51°21' E 004°16'0 0.0
2017-Nov-14 00:00N 51°21' E 004°16'0 0.0
2017-Nov-13 23:31N 51°21' E 004°16'4 7.4
2017-Nov-13 23:00N 51°24' E 004°12'611.4
2017-Nov-13 22:30N 51°22' E 004°03'4 8.6
2017-Nov-13 22:00N 51°25' E 003°58'11 0.6
2017-Nov-13 02:00N 51°28' E 003°40'0 0.0
2017-Nov-13 01:30N 51°28' E 003°40'0 0.0
2017-Nov-13 00:57N 51°28' E 003°40'0 0.0
2017-Nov-13 00:30N 51°28' E 003°40'0 0.0
2017-Nov-12 23:57N 51°28' E 003°40'0 0.0
2017-Nov-12 23:30N 51°28' E 003°40'0 0.0
2017-Nov-12 22:57N 51°28' E 003°40'0 0.0
2017-Nov-12 22:30N 51°28' E 003°40'0 0.0
2017-Nov-12 21:57N 51°28' E 003°40'0 0.0
2017-Nov-12 21:27N 51°28' E 003°40'0 0.0
2017-Nov-12 20:57N 51°28' E 003°40'0 0.4
2017-Nov-12 20:30N 51°27' E 003°41'510.3
2017-Nov-12 20:00N 51°25' E 003°33'4 8.2
2017-Nov-12 19:30N 51°25' E 003°27'4 8.6
2017-Nov-12 19:00N 51°24' E 003°20'2 4.2
2017-Nov-12 18:30N 51°25' E 003°23'5 9.3
2017-Nov-12 18:00N 51°25' E 003°31'5 9.9
2017-Nov-12 17:30N 51°26' E 003°38'2 3.1
2017-Nov-12 16:55N 51°28' E 003°40'0 0.0
2017-Nov-12 16:28N 51°28' E 003°40'0 0.0
2017-Nov-12 15:55N 51°28' E 003°40'0 0.0
2017-Nov-12 15:28N 51°28' E 003°40'0 0.0
2017-Nov-12 14:49N 51°28' E 003°40'0 0.0
2017-Nov-12 14:25N 51°28' E 003°40'0 0.0
2017-Nov-12 13:58N 51°28' E 003°40'0 0.0
2017-Nov-12 13:13N 51°28' E 003°40'0 0.0
2017-Nov-12 12:55N 51°28' E 003°40'0 0.0
2017-Nov-12 12:25N 51°28' E 003°40'0 0.0
2017-Nov-12 11:58N 51°28' E 003°40'0 0.0
2017-Nov-12 11:25N 51°28' E 003°40'0 0.0
2017-Nov-12 10:55N 51°28' E 003°40'0 0.0
2017-Nov-12 10:30N 51°28' E 003°40'1 1.0
2017-Nov-12 10:00N 51°28' E 003°41'1 2.5
2017-Nov-12 09:30N 51°27' E 003°43'1 2.3
2017-Nov-12 09:00N 51°27' E 003°42'2 4.1
2017-Nov-12 08:30N 51°26' E 003°39'0 0.6
2017-Nov-12 08:00N 51°26' E 003°38'2 3.9
2017-Nov-12 07:30N 51°28' E 003°40'0 0.0
2017-Nov-12 07:00N 51°28' E 003°40'0 0.0
2017-Nov-12 06:24N 51°28' E 003°40'0 0.0
2017-Nov-12 05:57N 51°28' E 003°40'0 0.0
2017-Nov-12 05:27N 51°28' E 003°40'0 0.0
2017-Nov-12 05:00N 51°28' E 003°40'0 0.0
2017-Nov-12 04:30N 51°28' E 003°40'0 0.0
2017-Nov-12 03:57N 51°28' E 003°40'0 0.0
2017-Nov-12 03:27N 51°28' E 003°40'0 0.0
2017-Nov-12 03:00N 51°28' E 003°40'0 0.0
2017-Nov-12 02:27N 51°28' E 003°40'0 0.0
2017-Nov-12 02:00N 51°28' E 003°40'0 0.0
2017-Nov-12 01:21N 51°28' E 003°40'0 0.0
2017-Nov-12 00:51N 51°28' E 003°40'0 0.0
2017-Nov-12 00:30N 51°28' E 003°40'0 0.0
2017-Nov-12 00:00N 51°28' E 003°40'0 0.0
2017-Nov-11 23:30N 51°28' E 003°40'0 0.0
2017-Nov-11 22:57N 51°28' E 003°40'0 0.0
2017-Nov-11 22:27N 51°28' E 003°40'0 0.0
2017-Nov-11 22:00N 51°28' E 003°40'0 0.0
2017-Nov-11 21:27N 51°28' E 003°40'0 0.0
2017-Nov-11 21:00N 51°28' E 003°40'0 0.0
2017-Nov-11 20:30N 51°28' E 003°40'1 2.8
2017-Nov-11 20:00N 51°29' E 003°42'0 0.0
2017-Nov-11 19:30N 51°29' E 003°42'0 0.4
2017-Nov-11 19:00N 51°28' E 003°42'0 0.5
2017-Nov-11 18:30N 51°28' E 003°43'1 2.0
2017-Nov-11 18:00N 51°27' E 003°42'1 1.7
2017-Nov-11 17:30N 51°27' E 003°43'0 0.3
2017-Nov-11 17:01N 51°27' E 003°42'0 0.1
2017-Nov-11 16:30N 51°27' E 003°42'0 0.0
2017-Nov-11 16:00N 51°27' E 003°42'1 2.6
2017-Nov-11 15:30N 51°26' E 003°42'4 8.2
2017-Nov-11 15:00N 51°22' E 003°45'3 4.2
2017-Nov-11 14:21N 51°20' E 003°49'0 0.0
2017-Nov-11 13:57N 51°20' E 003°49'0 0.0
2017-Nov-11 13:27N 51°20' E 003°49'0 0.0
2017-Nov-11 12:57N 51°20' E 003°49'0 0.0
2017-Nov-11 12:27N 51°20' E 003°49'0 0.0
2017-Nov-11 11:57N 51°20' E 003°49'0 0.0
2017-Nov-11 11:27N 51°20' E 003°49'0 0.0
2017-Nov-11 10:57N 51°20' E 003°49'0 0.0
2017-Nov-11 10:27N 51°20' E 003°49'0 0.0
2017-Nov-11 09:51N 51°20' E 003°49'0 0.0
2017-Nov-11 09:27N 51°20' E 003°49'0 0.0
2017-Nov-11 08:57N 51°20' E 003°49'0 0.0
2017-Nov-11 08:30N 51°20' E 003°49'0 0.0
2017-Nov-11 08:00N 51°20' E 003°49'0 0.0
2017-Nov-11 07:27N 51°20' E 003°49'0 0.0
2017-Nov-11 07:00N 51°20' E 003°49'0 0.0
2017-Nov-11 06:24N 51°20' E 003°49'0 0.0
2017-Nov-11 05:45N 51°20' E 003°49'0 0.0
2017-Nov-11 05:27N 51°20' E 003°49'0 0.0
2017-Nov-11 04:57N 51°20' E 003°49'0 0.0
2017-Nov-11 04:27N 51°20' E 003°49'0 0.0
2017-Nov-11 03:57N 51°20' E 003°49'0 0.0
2017-Nov-11 03:27N 51°20' E 003°49'0 0.0
2017-Nov-11 02:57N 51°20' E 003°49'0 0.0
2017-Nov-11 02:27N 51°20' E 003°49'0 0.0
2017-Nov-11 01:57N 51°20' E 003°49'0 0.0
2017-Nov-11 01:21N 51°20' E 003°49'1 1.4
2017-Nov-11 01:00N 51°20' E 003°49'0 0.2
2017-Nov-11 00:30N 51°20' E 003°49'1 2.6
2017-Nov-11 00:00N 51°18' E 003°50'3 6.1
2017-Nov-10 23:31N 51°15' E 003°50'3 6.4
2017-Nov-10 23:00N 51°12' E 003°48'3 5.5
2017-Nov-10 22:30N 51°10' E 003°47'1 1.7
2017-Nov-10 22:01N 51°10' E 003°48'2 3.4
2017-Nov-10 21:30N 51°09' E 003°47'1 1.3
2017-Nov-10 21:01N 51°09' E 003°47'1 2.8
2017-Nov-10 20:31N 51°11' E 003°48'4 8.5
2017-Nov-10 20:00N 51°15' E 003°49'4 7.6
2017-Nov-10 19:30N 51°19' E 003°50'0 0.0
2017-Nov-10 19:00N 51°19' E 003°50'0 0.0
2017-Nov-10 18:30N 51°19' E 003°50'1 2.3
2017-Nov-10 18:00N 51°20' E 003°49'0 0.7
2017-Nov-10 17:30N 51°20' E 003°49'0 0.6
2017-Nov-10 16:59N 51°20' E 003°49'0 0.0
2017-Nov-10 16:23N 51°20' E 003°49'0 0.0
2017-Nov-10 15:56N 51°20' E 003°49'0 0.0
2017-Nov-10 15:29N 51°20' E 003°49'0 0.0
2017-Nov-10 14:59N 51°20' E 003°49'0 0.0
2017-Nov-10 14:29N 51°20' E 003°49'0 0.0
2017-Nov-10 13:59N 51°20' E 003°49'0 0.0
2017-Nov-10 13:29N 51°20' E 003°49'0 0.0
2017-Nov-10 12:53N 51°20' E 003°49'0 0.0
2017-Nov-10 12:29N 51°20' E 003°49'0 0.0
2017-Nov-10 11:59N 51°20' E 003°49'0 0.0
2017-Nov-10 11:29N 51°20' E 003°49'0 0.0
2017-Nov-10 10:59N 51°20' E 003°49'0 0.0
2017-Nov-10 10:11N 51°20' E 003°49'0 0.0
2017-Nov-10 09:59N 51°20' E 003°49'0 0.0
2017-Nov-10 09:29N 51°20' E 003°49'0 0.0
2017-Nov-10 08:59N 51°20' E 003°49'0 0.0
2017-Nov-10 08:29N 51°20' E 003°49'0 0.0
2017-Nov-10 07:53N 51°20' E 003°49'0 0.0
2017-Nov-10 07:29N 51°20' E 003°49'0 0.0
2017-Nov-10 06:59N 51°20' E 003°49'0 0.0
2017-Nov-10 06:23N 51°20' E 003°49'0 0.0
2017-Nov-10 05:59N 51°20' E 003°49'0 0.0
2017-Nov-10 05:29N 51°20' E 003°49'0 0.0
2017-Nov-10 04:59N 51°20' E 003°49'0 0.0
2017-Nov-10 04:23N 51°20' E 003°49'0 0.0
2017-Nov-10 03:59N 51°20' E 003°49'0 0.0
2017-Nov-10 03:29N 51°20' E 003°49'0 0.0
2017-Nov-10 02:59N 51°20' E 003°49'0 0.0
2017-Nov-10 02:29N 51°20' E 003°49'0 0.0
2017-Nov-10 01:59N 51°20' E 003°49'0 0.0
2017-Nov-10 01:29N 51°20' E 003°49'0 0.0
2017-Nov-10 00:59N 51°20' E 003°49'  

Dump ship's entire track history